Time;durP1;ratioP1;P1;durP2;ratioP2;P2;SDS_P1;SDS_P2;PMS_P1;PMS_P2;Temp;Humidity;BMP_temperature;BMP_pressure;BME280_temperature;BME280_humidity;BME280_pressure;Samples;Min_cycle;Max_cycle;Signal;HPM_P1;HPM_P2
2021/08/09 00:02:00;;;;;;;6.10;3.40;;;;;;;14.97;79.62;99490.14;1772145;79;21485;-67
2021/08/09 00:04:27;;;;;;;4.00;3.20;;;;;;;15.03;79.71;99486.72;1777116;79;20951;-67
2021/08/09 00:06:54;;;;;;;6.60;4.00;;;;;;;15.06;79.73;99487.34;1775230;79;21040;-67
2021/08/09 00:09:21;;;;;;;;;;;;;;;15.11;79.77;99481.77;1780993;79;21056;-67
2021/08/09 00:11:48;;;;;;;4.85;2.65;;;;;;;15.15;79.93;99476.65;1748704;79;20948;-67
2021/08/09 00:14:14;;;;;;;3.52;3.10;;;;;;;15.18;79.91;99477.78;1769754;79;21471;-68
2021/08/09 00:16:43;;;;;;;5.20;3.00;;;;;;;15.20;79.93;99481.13;1775055;79;21016;-67
2021/08/09 00:19:10;;;;;;;5.35;3.05;;;;;;;15.21;79.95;99480.19;1772006;79;20991;-67
2021/08/09 00:21:37;;;;;;;4.70;3.05;;;;;;;15.23;79.99;99474.33;1758279;79;21527;-68
2021/08/09 00:24:04;;;;;;;5.08;3.05;;;;;;;15.27;80.00;99483.70;1764012;79;21237;-67
2021/08/09 00:26:33;;;;;;;4.47;3.05;;;;;;;15.27;79.94;99482.38;1753622;79;20988;-67
2021/08/09 00:28:59;;;;;;;4.40;3.08;;;;;;;15.26;79.97;99481.16;1747798;81;21491;-67
2021/08/09 00:31:26;;;;;;;4.12;2.83;;;;;;;15.23;79.99;99478.27;1753623;81;21501;-67
2021/08/09 00:33:53;;;;;;;5.97;3.10;;;;;;;15.22;80.02;99479.23;1748227;81;21043;-67
2021/08/09 00:36:20;;;;;;;4.97;2.83;;;;;;;15.22;80.06;99477.91;1749023;81;21107;-67
2021/08/09 00:38:47;;;;;;;8.93;3.47;;;;;;;15.19;80.05;99476.82;1751175;81;21877;-67
2021/08/09 00:41:15;;;;;;;5.65;3.08;;;;;;;15.15;80.04;99472.70;1749355;81;21588;-67
2021/08/09 00:43:41;;;;;;;6.55;3.12;;;;;;;15.12;80.12;99467.66;1751194;81;20949;-67
2021/08/09 00:46:08;;;;;;;3.87;2.87;;;;;;;15.09;80.14;99462.63;1752568;80;21503;-67
2021/08/09 00:48:34;;;;;;;6.63;3.20;;;;;;;15.09;80.11;99465.25;1749525;81;21137;-68
2021/08/09 00:51:04;;;;;;;2.90;2.60;;;;;;;15.07;80.22;99464.52;1754562;81;21035;-67
2021/08/09 00:53:33;;;;;;;8.43;2.85;;;;;;;15.03;80.20;99467.84;1754704;80;20941;-67
2021/08/09 00:56:02;;;;;;;3.98;2.70;;;;;;;14.96;80.21;99468.75;1740698;81;21573;-67
2021/08/09 00:58:29;;;;;;;4.45;2.98;;;;;;;14.93;80.22;99458.45;1756969;81;21007;-67
2021/08/09 01:00:56;;;;;;;;;;;;;;;14.88;80.23;99464.50;1754296;81;21439;-68
2021/08/09 01:03:22;;;;;;;4.25;3.05;;;;;;;14.83;80.36;99470.53;1753675;81;20520;-68
2021/08/09 01:05:50;;;;;;;4.37;2.80;;;;;;;14.77;80.33;99472.28;1752299;81;21074;-67
2021/08/09 01:09:03;;;;;;;3.47;2.87;;;;;;;14.73;80.36;99483.92;1752949;81;21458;-67
2021/08/09 01:11:36;;;;;;;4.00;2.83;;;;;;;14.67;80.41;99483.03;1753593;81;21501;-69
2021/08/09 01:14:13;;;;;;;4.30;3.22;;;;;;;14.62;80.58;99487.76;1750429;81;21590;-68
2021/08/09 01:16:43;;;;;;;5.45;3.17;;;;;;;14.57;80.46;99492.51;1746833;81;20953;-67
2021/08/09 01:19:25;;;;;;;3.70;2.52;;;;;;;14.49;80.47;99502.18;1736660;81;21002;-66
2021/08/09 01:21:57;;;;;;;3.10;2.58;;;;;;;14.42;80.47;99502.20;1756677;80;21102;-67
2021/08/09 01:24:32;;;;;;;3.45;2.65;;;;;;;14.38;80.53;99513.87;1753442;81;22221;-68
2021/08/09 01:27:21;;;;;;;3.55;2.42;;;;;;;14.33;80.58;99515.00;1671899;83;21190;-67
2021/08/09 01:29:47;;;;;;;3.30;2.80;;;;;;;14.30;80.68;99509.95;1683297;83;21031;-68
2021/08/09 01:32:17;;;;;;;4.35;3.05;;;;;;;14.29;80.80;99504.82;1677499;83;21058;-68
2021/08/09 01:34:45;;;;;;;4.72;2.95;;;;;;;14.29;80.80;99504.82;1679094;83;21022;-68
2021/08/09 01:37:13;;;;;;;4.15;2.65;;;;;;;14.32;80.84;99505.92;1681238;83;21051;-68
2021/08/09 01:39:41;;;;;;;2.95;2.62;;;;;;;14.36;80.92;99515.27;1623793;85;21126;-69
2021/08/09 01:42:10;;;;;;;4.87;2.70;;;;;;;14.39;80.92;99516.38;1682311;83;21142;-68
2021/08/09 01:44:39;;;;;;;3.52;3.10;;;;;;;14.43;80.99;99517.88;1678243;83;21012;-68
2021/08/09 01:47:07;;;;;;;6.10;3.27;;;;;;;14.45;80.95;99513.37;1693098;83;20998;-68
2021/08/09 01:49:34;;;;;;;4.10;2.80;;;;;;;14.48;80.93;99513.16;1688786;83;21099;-68
2021/08/09 01:52:04;;;;;;;3.75;2.40;;;;;;;14.48;80.93;99513.16;1684345;83;21171;-68
2021/08/09 01:54:31;;;;;;;2.80;2.50;;;;;;;14.47;80.97;99511.45;1677784;83;21774;-68
2021/08/09 01:56:58;;;;;;;3.75;2.62;;;;;;;14.47;81.01;99514.09;1680206;83;21127;-68
2021/08/09 01:59:25;;;;;;;3.98;2.33;;;;;;;14.49;81.08;99520.09;1674129;83;20944;-68
2021/08/09 02:01:52;;;;;;;3.80;2.20;;;;;;;14.49;81.04;99527.97;1678431;83;21083;-68
2021/08/09 02:04:20;;;;;;;;;;;;;;;14.52;81.19;99523.86;1717562;81;21132;-68
2021/08/09 02:06:46;;;;;;;;;;;;;;;14.53;81.27;99532.09;1776081;79;20403;-68
2021/08/09 02:09:13;;;;;;;5.87;2.25;;;;;;;14.53;81.31;99532.09;1779286;79;20447;-68
2021/08/09 02:11:57;;;;;;;2.45;2.25;;;;;;;14.52;81.20;99527.80;1777886;79;21124;-68
2021/08/09 02:14:27;;;;;;;4.83;2.67;;;;;;;14.51;81.20;99528.72;1769691;79;21517;-68
2021/08/09 02:17:20;;;;;;;5.28;2.50;;;;;;;14.51;81.25;99528.72;1774489;79;21476;-68
2021/08/09 02:20:04;;;;;;;5.03;2.37;;;;;;;14.58;81.40;99533.59;1771883;79;21492;-68
2021/08/09 02:22:51;;;;;;;3.55;2.10;;;;;;;14.61;81.34;99538.64;1774465;79;20973;-68
2021/08/09 02:25:26;;;;;;;5.78;2.22;;;;;;;14.66;81.35;99541.80;1777025;79;20997;-68
2021/08/09 02:28:04;;;;;;;5.50;2.25;;;;;;;14.63;81.21;99539.39;1775904;79;20940;-68
2021/08/09 02:30:33;;;;;;;3.62;1.82;;;;;;;14.61;81.29;99543.89;1777676;79;21981;-68
2021/08/09 02:33:03;;;;;;;4.72;2.12;;;;;;;14.61;81.32;99541.27;1774743;79;20959;-68
2021/08/09 02:35:30;;;;;;;4.85;1.90;;;;;;;14.59;81.31;99544.45;1755537;79;20989;-68
2021/08/09 02:37:58;;;;;;;3.45;1.82;;;;;;;14.59;81.31;99548.40;1771524;79;20994;-68
2021/08/09 02:40:27;;;;;;;4.87;2.10;;;;;;;14.58;81.36;99539.68;1774629;79;21003;-68
2021/08/09 02:42:56;;;;;;;2.70;1.80;;;;;;;14.60;81.37;99536.97;1767717;79;21303;-68
2021/08/09 02:45:22;;;;;;;2.98;2.27;;;;;;;14.65;81.41;99537.51;1774671;79;21017;-68
2021/08/09 02:47:50;;;;;;;1.60;1.50;;;;;;;14.66;81.34;99536.55;1775459;79;20977;-68
2021/08/09 02:50:17;;;;;;;3.60;1.72;;;;;;;14.66;81.25;99537.86;1771003;79;21028;-68
2021/08/09 02:52:44;;;;;;;6.62;1.90;;;;;;;14.58;81.12;99538.84;1777107;79;20887;-68
2021/08/09 02:55:14;;;;;;;3.35;1.92;;;;;;;14.51;81.10;99533.97;1779224;79;21087;-68
2021/08/09 02:57:42;;;;;;;4.60;2.20;;;;;;;14.44;81.09;99532.68;1753031;79;20930;-68
2021/08/09 03:00:10;;;;;;;2.75;2.12;;;;;;;14.41;81.18;99535.52;1762200;79;20926;-68
2021/08/09 03:02:41;;;;;;;3.77;2.15;;;;;;;14.36;81.17;99540.22;1778991;79;21031;-68
2021/08/09 03:05:28;;;;;;;3.25;2.02;;;;;;;14.32;81.22;99542.22;1773525;79;20982;-68
2021/08/09 03:07:57;;;;;;;2.92;1.82;;;;;;;14.27;81.13;99543.46;1738435;80;21192;-66
2021/08/09 03:10:23;;;;;;;2.42;2.05;;;;;;;14.18;81.15;99538.81;1741389;80;21063;-65
2021/08/09 03:12:58;;;;;;;2.45;1.70;;;;;;;14.07;81.09;99550.84;1736754;81;21013;-65
2021/08/09 03:15:25;;;;;;;2.25;1.55;;;;;;;13.98;81.13;99558.01;1711114;82;21043;-67
2021/08/09 03:17:53;;;;;;;5.00;2.05;;;;;;;13.95;81.39;99550.78;1710162;82;21040;-67
2021/08/09 03:20:19;;;;;;;;;;;;;;;13.93;81.45;99552.20;1717515;82;21120;-67
2021/08/09 03:22:46;;;;;;;5.17;2.22;;;;;;;13.94;81.56;99559.13;1706429;82;24422;-67
2021/08/09 03:25:13;;;;;;;2.50;1.80;;;;;;;13.94;81.53;99556.50;1715208;82;21565;-67
2021/08/09 03:27:40;;;;;;;3.15;1.62;;;;;;;13.95;81.55;99556.89;1699015;82;21018;-67
2021/08/09 03:30:08;;;;;;;4.50;1.90;;;;;;;13.94;81.50;99560.91;1741741;80;21060;-67
2021/08/09 03:32:35;;;;;;;6.75;2.12;;;;;;;13.89;81.25;99563.82;1737335;80;21090;-67
2021/08/09 03:35:03;;;;;;;2.20;1.70;;;;;;;13.79;81.20;99565.36;1714804;82;21071;-67
2021/08/09 03:37:30;;;;;;;2.62;1.67;;;;;;;13.73;81.26;99567.06;1717712;82;21575;-67
2021/08/09 03:39:57;;;;;;;2.85;1.72;;;;;;;13.71;81.37;99578.12;1693386;83;21523;-67
2021/08/09 03:42:23;;;;;;;5.73;2.00;;;;;;;13.71;81.46;99576.80;1713277;82;20965;-68
2021/08/09 03:44:50;;;;;;;2.77;1.90;;;;;;;13.77;81.50;99576.41;1706308;82;21401;-67
2021/08/09 03:47:17;;;;;;;3.67;2.15;;;;;;;13.80;81.51;99573.59;1715461;82;20983;-67
2021/08/09 03:49:44;;;;;;;;;;;;;;;13.92;81.72;99578.09;1751303;79;21030;-68
2021/08/09 03:52:11;;;;;;;3.35;2.15;;;;;;;14.08;81.71;99583.19;1713285;83;20217;-68
2021/08/09 03:54:38;;;;;;;5.67;2.52;;;;;;;14.16;81.56;99590.58;1707068;82;21044;-68
2021/08/09 03:57:05;;;;;;;2.58;2.12;;;;;;;14.30;81.72;99597.09;1709522;82;21104;-68
2021/08/09 03:59:32;;;;;;;7.05;2.15;;;;;;;14.40;81.47;99596.88;1705403;82;21356;-68
2021/08/09 04:01:58;;;;;;;3.53;2.47;;;;;;;14.51;81.56;99602.28;1716984;83;20939;-68
2021/08/09 04:04:25;;;;;;;3.62;2.40;;;;;;;14.58;81.36;99599.27;1715347;83;20934;-68
2021/08/09 04:06:52;;;;;;;3.60;2.20;;;;;;;14.61;81.31;99605.64;1708548;81;21091;-68
2021/08/09 04:09:19;;;;;;;3.83;2.35;;;;;;;14.64;81.31;99609.38;1751531;80;22342;-68
2021/08/09 04:11:45;;;;;;;4.42;2.25;;;;;;;14.66;81.25;99610.13;1760157;79;21521;-68
2021/08/09 04:14:12;;;;;;;7.93;2.67;;;;;;;14.73;81.47;99612.70;1758237;79;21039;-67
2021/08/09 04:16:39;;;;;;;2.62;1.85;;;;;;;14.84;81.63;99616.77;1733132;81;21111;-68
2021/08/09 04:19:05;;;;;;;2.73;2.07;;;;;;;14.84;81.31;99615.46;1759955;80;21070;-68
2021/08/09 04:21:32;;;;;;;3.57;2.43;;;;;;;14.86;81.28;99621.47;1758285;80;22391;-68
2021/08/09 04:23:59;;;;;;;9.27;2.10;;;;;;;14.88;81.33;99622.70;1725428;82;21483;-68
2021/08/09 04:26:26;;;;;;;4.45;2.30;;;;;;;14.88;81.28;99616.95;1762657;80;21044;-67
2021/08/09 04:28:53;;;;;;;4.80;2.30;;;;;;;14.83;81.14;99624.78;1736795;80;20937;-68
2021/08/09 04:31:20;;;;;;;4.90;2.20;;;;;;;14.77;81.18;99620.77;1755255;80;20994;-68
2021/08/09 04:33:48;;;;;;;;;;;;;;;14.74;81.16;99619.66;1746564;80;21070;-68
2021/08/09 04:36:15;;;;;;;5.92;2.37;;;;;;;14.69;81.28;99623.90;1762002;79;20543;-68
2021/08/09 04:38:42;;;;;;;4.62;2.22;;;;;;;14.70;81.32;99622.11;1757115;79;20977;-68
2021/08/09 04:41:10;;;;;;;3.00;2.08;;;;;;;14.70;81.27;99619.03;1755254;80;21010;-68
2021/08/09 04:43:40;;;;;;;5.70;2.40;;;;;;;14.71;81.35;99621.19;1761187;79;21033;-68
2021/08/09 04:46:07;;;;;;;4.35;2.27;;;;;;;14.69;81.25;99616.02;1760796;79;22215;-68
2021/08/09 04:48:34;;;;;;;4.17;2.55;;;;;;;14.71;81.33;99618.55;1755331;79;20966;-68
2021/08/09 04:51:01;;;;;;;5.12;2.12;;;;;;;14.76;81.42;99619.09;1758520;79;21005;-68
2021/08/09 04:53:27;;;;;;;4.85;2.10;;;;;;;14.83;81.36;99627.41;1758316;80;21092;-68
2021/08/09 04:55:54;;;;;;;3.25;2.25;;;;;;;14.90;81.45;99629.53;1758587;80;21008;-68
2021/08/09 04:58:21;;;;;;;5.65;2.02;;;;;;;14.94;81.48;99625.74;1742771;81;21119;-67
2021/08/09 05:00:49;;;;;;;3.92;1.80;;;;;;;14.97;81.29;99628.16;1731723;80;29051;-67
2021/08/09 05:03:16;;;;;;;5.65;2.02;;;;;;;15.03;81.45;99634.80;1759298;80;21000;-68
2021/08/09 05:05:45;;;;;;;3.00;1.80;;;;;;;15.09;81.45;99640.12;1728330;80;20953;-67
2021/08/09 05:08:12;;;;;;;6.42;2.27;;;;;;;15.17;81.39;99642.59;1739577;80;20973;-67
2021/08/09 05:10:39;;;;;;;4.37;2.30;;;;;;;15.26;81.43;99642.45;1731896;81;21963;-68
2021/08/09 05:13:06;;;;;;;6.92;2.20;;;;;;;15.33;81.20;99640.26;1739320;81;21013;-68
2021/08/09 05:15:34;;;;;;;4.78;2.17;;;;;;;15.34;81.03;99640.14;1742238;81;21060;-69
2021/08/09 05:18:01;;;;;;;2.67;1.90;;;;;;;15.33;80.98;99637.15;1741479;80;22391;-68
2021/08/09 05:20:36;;;;;;;11.48;2.00;;;;;;;15.39;81.02;99645.93;1745658;80;21629;-68
2021/08/09 05:23:03;;;;;;;3.72;2.30;;;;;;;15.48;81.17;99647.09;1741756;80;21242;-67
2021/08/09 05:25:33;;;;;;;6.00;2.98;;;;;;;15.65;81.16;99647.23;1741700;80;20942;-68
2021/08/09 05:28:00;;;;;;;3.42;1.70;;;;;;;15.70;81.01;99637.75;1723811;80;21026;-68
2021/08/09 05:30:26;;;;;;;5.05;2.00;;;;;;;15.79;80.83;99635.30;1734849;80;21028;-68
2021/08/09 05:32:53;;;;;;;3.02;1.80;;;;;;;15.84;80.73;99637.14;1739732;80;20959;-68
2021/08/09 05:35:20;;;;;;;3.60;1.92;;;;;;;15.83;80.50;99630.68;1717715;80;22266;-68
2021/08/09 05:37:49;;;;;;;3.58;2.52;;;;;;;15.88;80.58;99638.62;1733922;80;21070;-68
2021/08/09 05:40:16;;;;;;;4.37;2.17;;;;;;;15.87;80.46;99642.19;1722114;80;20950;-68
2021/08/09 05:42:47;;;;;;;4.20;1.50;;;;;;;15.93;80.55;99637.44;1679872;82;21063;-66
2021/08/09 05:45:12;;;;;;;6.22;2.12;;;;;;;15.97;80.38;99632.34;1735171;81;21039;-68
2021/08/09 05:47:38;;;;;;;3.22;1.95;;;;;;;16.00;80.36;99638.70;1736827;81;21124;-68
2021/08/09 05:50:06;;;;;;;6.78;1.85;;;;;;;16.04;80.35;99646.73;1740054;81;20993;-67
2021/08/09 05:52:32;;;;;;;8.85;1.80;;;;;;;16.04;80.09;99646.73;1735442;81;20980;-68
2021/08/09 05:55:05;;;;;;;5.50;1.62;;;;;;;16.04;80.14;99643.63;1707078;82;20974;-67
2021/08/09 05:57:32;;;;;;;4.75;2.00;;;;;;;16.09;80.02;99646.77;1745061;80;20976;-67
2021/08/09 05:59:59;;;;;;;28.07;2.67;;;;;;;16.43;80.49;99648.78;1746716;80;22263;-69
2021/08/09 06:02:25;;;;;;;10.00;2.47;;;;;;;17.32;81.48;99644.83;1741966;80;21001;-68
2021/08/09 06:04:52;;;;;;;6.95;1.95;;;;;;;18.59;81.05;99648.47;1735726;82;21457;-68
2021/08/09 06:07:19;;;;;;;4.15;2.05;;;;;;;19.82;80.09;99641.18;1727846;81;20991;-68
2021/08/09 06:09:46;;;;;;;28.25;8.48;;;;;;;20.84;79.05;99645.44;1727751;81;21531;-68
2021/08/09 06:12:14;;;;;;;7.47;2.20;;;;;;;21.77;78.98;99646.55;1731777;80;21894;-68
2021/08/09 06:14:40;;;;;;;12.13;4.12;;;;;;;22.83;78.22;99645.09;1760255;80;20941;-68
2021/08/09 06:17:07;;;;;;;5.30;2.92;;;;;;;23.65;77.50;99641.69;1756748;79;21629;-69
2021/08/09 06:19:35;;;;;;;6.22;2.50;;;;;;;24.30;76.38;99640.63;1752845;80;20985;-69
2021/08/09 06:22:03;;;;;;;10.10;1.98;;;;;;;24.77;75.42;99637.41;1758449;80;21096;-69
2021/08/09 06:24:29;;;;;;;6.85;2.77;;;;;;;25.15;75.37;99636.45;1761607;79;21080;-70
2021/08/09 06:26:56;;;;;;;11.97;2.10;;;;;;;25.75;74.88;99643.66;1758290;81;21735;-69
2021/08/09 06:29:22;;;;;;;3.52;1.47;;;;;;;26.25;74.71;99645.15;1754025;79;21060;-69
2021/08/09 06:31:49;;;;;;;10.50;1.75;;;;;;;26.76;73.92;99641.49;1758106;80;20981;-69
2021/08/09 06:34:15;;;;;;;8.95;2.05;;;;;;;27.18;74.14;99644.19;1755081;79;21014;-69
2021/08/09 06:36:42;;;;;;;112.45;9.38;;;;;;;27.73;73.62;99649.66;1755779;80;21127;-69
2021/08/09 06:39:11;;;;;;;7.67;1.52;;;;;;;28.23;72.73;99640.00;1759710;79;21074;-69
2021/08/09 06:41:37;;;;;;;6.42;1.47;;;;;;;27.84;70.68;99647.88;1758456;79;20991;-69
2021/08/09 06:44:04;;;;;;;6.67;1.45;;;;;;;27.40;70.67;99645.98;1762836;79;21048;-68
2021/08/09 06:46:31;;;;;;;3.50;1.82;;;;;;;27.03;69.81;99652.66;1761885;79;20969;-67
2021/08/09 06:48:58;;;;;;;5.53;1.75;;;;;;;26.92;69.98;99656.11;1730967;80;21185;-69
2021/08/09 06:51:24;;;;;;;3.50;1.55;;;;;;;26.43;68.57;99653.72;1735486;80;21022;-69
2021/08/09 06:53:51;;;;;;;9.68;1.72;;;;;;;25.78;68.13;99661.52;1726938;82;20898;-69
2021/08/09 06:56:17;;;;;;;;;;;;;;;25.14;68.07;99670.83;1763520;80;20945;-68
2021/08/09 06:58:44;;;;;;;3.77;1.82;;;;;;;24.92;68.08;99666.12;1760590;80;20156;-68
2021/08/09 07:01:11;;;;;;;4.10;2.05;;;;;;;25.20;69.07;99664.80;1756948;80;21078;-68
2021/08/09 07:03:37;;;;;;;6.95;2.00;;;;;;;25.53;68.42;99674.13;1735456;80;21028;-68
2021/08/09 07:06:04;;;;;;;15.63;7.05;;;;;;;26.12;68.33;99674.63;1761789;79;20969;-69
2021/08/09 07:08:31;;;;;;;6.95;3.10;;;;;;;26.45;67.90;99670.45;1742654;79;20930;-68
2021/08/09 07:10:58;;;;;;;73.83;13.38;;;;;;;26.87;66.42;99666.52;1687592;82;21084;-69
2021/08/09 07:13:24;;;;;;;99.75;16.73;;;;;;;26.22;65.02;99670.92;1727483;81;21489;-68
2021/08/09 07:15:54;;;;;;;66.25;10.80;;;;;;;26.26;65.59;99668.22;1737218;81;21552;-68
2021/08/09 07:18:37;;;;;;;151.93;27.52;;;;;;;26.51;66.03;99675.13;1734827;81;21011;-69
2021/08/09 07:21:04;;;;;;;18.45;4.58;;;;;;;26.64;65.23;99679.91;1709129;82;21064;-69
2021/08/09 07:23:37;;;;;;;62.25;13.45;;;;;;;26.72;65.02;99679.00;1715554;82;20966;-69
2021/08/09 07:26:06;;;;;;;57.13;10.90;;;;;;;26.74;64.48;99676.48;1732818;81;21267;-69
2021/08/09 07:28:39;;;;;;;73.67;15.72;;;;;;;26.86;64.68;99686.30;1739551;81;20983;-72
2021/08/09 07:31:11;;;;;;;32.08;8.05;;;;;;;26.77;64.04;99683.33;1713099;81;20983;-71
2021/08/09 07:33:50;;;;;;;108.07;19.23;;;;;;;26.58;63.23;99685.12;1735081;81;21111;-68
2021/08/09 07:36:21;;;;;;;56.28;13.95;;;;;;;26.15;63.45;99681.98;1667408;82;22312;-71
2021/08/09 07:38:52;;;;;;;46.58;12.88;;;;;;;26.07;63.57;99686.34;1686258;81;21047;-71
2021/08/09 07:41:26;;;;;;;22.60;5.65;;;;;;;25.84;62.97;99688.11;1680340;82;21147;-72
2021/08/09 07:43:56;;;;;;;18.23;3.37;;;;;;;25.60;62.36;99684.48;1724912;81;21624;-72
2021/08/09 07:46:32;;;;;;;18.82;4.80;;;;;;;25.42;62.57;99681.16;1696519;81;21188;-69
2021/08/09 07:49:11;;;;;;;125.67;18.90;;;;;;;25.23;61.64;99680.53;1676877;82;21652;-73
2021/08/09 07:51:39;;;;;;;45.52;9.25;;;;;;;24.84;61.48;99679.46;1696413;81;21168;-72
2021/08/09 07:54:17;;;;;;;158.07;22.22;;;;;;;24.52;60.89;99681.09;1718306;81;20950;-71
2021/08/09 07:57:03;;;;;;;10.68;2.85;;;;;;;24.13;61.15;99680.27;1699376;82;21606;-71
2021/08/09 07:59:32;;;;;;;8.50;2.83;;;;;;;23.82;60.64;99684.79;1695593;81;21764;-70
2021/08/09 08:02:11;;;;;;;40.98;4.17;;;;;;;23.79;60.58;99690.44;1708216;81;21156;-70
2021/08/09 08:04:45;;;;;;;9.80;2.50;;;;;;;23.81;61.08;99691.13;1723121;81;21128;-70
2021/08/09 08:07:32;;;;;;;5.35;2.00;;;;;;;23.90;61.04;99692.83;1711316;81;21757;-69
2021/08/09 08:10:05;;;;;;;25.85;3.83;;;;;;;24.00;60.82;99689.20;1717945;82;20965;-71
2021/08/09 08:12:33;;;;;;;10.58;2.55;;;;;;;24.14;60.80;99689.92;1713150;82;21075;-69
2021/08/09 08:15:05;;;;;;;4.20;1.80;;;;;;;24.20;60.44;99683.11;1691184;82;21580;-70
2021/08/09 08:17:34;;;;;;;8.28;2.33;;;;;;;24.29;59.94;99682.16;1706919;81;21845;-71
2021/08/09 08:20:03;;;;;;;12.78;2.35;;;;;;;24.15;59.65;99686.28;1706393;82;21084;-70
2021/08/09 08:22:36;;;;;;;6.92;2.02;;;;;;;24.28;60.10;99685.34;1712731;82;21538;-71
2021/08/09 08:25:09;;;;;;;9.50;2.47;;;;;;;24.50;60.05;99687.08;1733606;80;21067;-71
2021/08/09 08:27:53;;;;;;;5.40;2.37;;;;;;;24.62;59.16;99689.80;1727555;81;21030;-71
2021/08/09 08:30:22;;;;;;;5.22;1.75;;;;;;;24.42;59.01;99693.70;1736078;81;21081;-71
2021/08/09 08:32:53;;;;;;;9.58;2.22;;;;;;;24.41;58.89;99694.70;1712052;82;21025;-73
2021/08/09 08:35:24;;;;;;;12.68;2.45;;;;;;;24.27;58.64;99696.98;1737157;81;20973;-73
2021/08/09 08:37:54;;;;;;;5.58;2.10;;;;;;;24.30;58.61;99696.66;1740136;80;21389;-73
2021/08/09 08:40:32;;;;;;;14.03;2.02;;;;;;;24.41;58.56;99697.38;1705393;81;21546;-73
2021/08/09 08:43:01;;;;;;;17.80;6.22;;;;;;;24.54;58.52;99695.11;1719487;82;21092;-72
2021/08/09 08:45:32;;;;;;;7.75;2.10;;;;;;;24.59;58.02;99699.94;1680093;82;21858;-71
2021/08/09 08:48:02;;;;;;;31.93;8.00;;;;;;;24.59;58.10;99703.47;1721335;82;21064;-73
2021/08/09 08:50:34;;;;;;;21.35;2.35;;;;;;;24.56;57.40;99707.77;1719203;81;20982;-72
2021/08/09 08:53:02;;;;;;;6.95;2.02;;;;;;;24.37;57.40;99708.02;1715345;81;21050;-73
2021/08/09 08:55:54;;;;;;;9.58;2.02;;;;;;;24.13;56.98;99706.94;1710005;82;21598;-73
2021/08/09 08:58:24;;;;;;;25.97;3.60;;;;;;;23.82;56.96;99711.45;1697771;81;21145;-71
2021/08/09 09:00:56;;;;;;;8.85;1.75;;;;;;;23.94;57.60;99708.51;1738281;79;20976;-74
2021/08/09 09:03:27;;;;;;;19.77;2.83;;;;;;;24.04;57.04;99709.23;1763081;79;22215;-71
2021/08/09 09:06:10;;;;;;;15.58;1.75;;;;;;;24.11;56.77;99710.25;1769064;79;20898;-73
2021/08/09 09:08:45;;;;;;;21.35;3.20;;;;;;;24.11;56.17;99712.92;1764801;78;21577;-74
2021/08/09 09:11:29;;;;;;;15.20;2.40;;;;;;;23.80;55.93;99726.76;1771440;78;20987;-73
2021/08/09 09:14:04;;;;;;;83.27;6.92;;;;;;;23.51;55.80;99723.55;1802627;78;22099;-74
2021/08/09 09:16:50;;;;;;;31.25;4.15;;;;;;;23.33;55.89;99727.09;1797014;78;21748;-73
2021/08/09 09:19:43;;;;;;;14.90;2.70;;;;;;;23.40;56.09;99724.13;1745669;81;21262;-74
2021/08/09 09:22:22;;;;;;;6.65;1.67;;;;;;;23.72;56.47;99726.70;1747259;81;21121;-74
2021/08/09 09:24:53;;;;;;;18.50;2.52;;;;;;;23.94;55.65;99727.17;1744576;81;21561;-71
2021/08/09 09:27:32;;;;;;;6.28;1.65;;;;;;;23.89;55.50;99720.50;1736964;80;20947;-72
2021/08/09 09:30:21;;;;;;;3.47;2.10;;;;;;;24.15;55.92;99723.62;1744572;80;21011;-72
2021/08/09 09:33:04;;;;;;;21.87;2.42;;;;;;;24.48;55.47;99719.79;1738528;81;20968;-70
2021/08/09 09:35:39;;;;;;;17.30;2.58;;;;;;;24.70;54.88;99727.19;1738654;81;20948;-72
2021/08/09 09:38:06;;;;;;;6.17;1.52;;;;;;;24.75;54.61;99727.51;1740939;81;21495;-72
2021/08/09 09:40:41;;;;;;;5.58;1.55;;;;;;;25.04;54.90;99727.58;1738099;81;21715;-71
2021/08/09 09:43:20;;;;;;;7.70;1.37;;;;;;;25.40;54.48;99728.59;1738831;82;20960;-72
2021/08/09 09:45:58;;;;;;;5.55;1.35;;;;;;;25.45;53.82;99730.27;1737810;82;21074;-72
2021/08/09 09:48:37;;;;;;;6.28;1.70;;;;;;;25.57;53.62;99727.59;1740127;81;21997;-72
2021/08/09 09:51:15;;;;;;;3.22;1.37;;;;;;;25.67;53.69;99722.88;1709584;82;21599;-72
2021/08/09 09:53:43;;;;;;;19.70;1.65;;;;;;;25.65;52.99;99722.24;1705217;83;20959;-71
2021/08/09 09:56:11;;;;;;;31.55;2.17;;;;;;;25.51;52.55;99733.59;1706492;82;21024;-72
2021/08/09 09:58:39;;;;;;;10.90;1.32;;;;;;;25.46;52.70;99730.62;1707135;82;21076;-72
2021/08/09 10:01:08;;;;;;;22.13;2.17;;;;;;;25.71;52.63;99725.21;1706948;82;22121;-72
2021/08/09 10:03:37;;;;;;;9.85;1.57;;;;;;;25.78;51.85;99727.05;1709387;83;21031;-72
2021/08/09 10:06:05;;;;;;;12.30;1.80;;;;;;;25.80;51.75;99726.89;1707366;83;21074;-73
2021/08/09 10:08:42;;;;;;;7.25;1.50;;;;;;;25.79;51.70;99735.89;1705339;83;21833;-71
2021/08/09 10:11:11;;;;;;;14.58;1.60;;;;;;;25.84;51.40;99733.58;1706847;82;21554;-72
2021/08/09 10:13:39;;;;;;;38.67;2.92;;;;;;;25.48;50.89;99731.26;1681521;83;22886;-71
2021/08/09 10:16:11;;;;;;;8.48;1.82;;;;;;;25.20;50.50;99719.58;1706875;83;21020;-72
2021/08/09 10:18:51;;;;;;;5.50;1.30;;;;;;;24.83;50.35;99736.55;1727472;82;21515;-72
2021/08/09 10:21:23;;;;;;;7.25;1.20;;;;;;;24.49;50.21;99732.13;1708278;83;21558;-73
2021/08/09 10:23:50;;;;;;;6.37;1.12;;;;;;;24.29;50.28;99739.53;1658983;85;21040;-72
2021/08/09 10:26:32;;;;;;;;;;;;;;;24.16;50.22;99741.29;1705198;84;21390;-72
2021/08/09 10:29:08;;;;;;;14.55;1.50;;;;;;;23.89;49.60;99745.83;1734120;81;20195;-72
2021/08/09 10:31:42;;;;;;;39.90;3.92;;;;;;;23.50;49.74;99753.84;1732331;81;21008;-72
2021/08/09 10:34:36;;;;;;;21.40;1.98;;;;;;;23.23;49.88;99750.30;1729621;81;20965;-72
2021/08/09 10:37:16;;;;;;;9.50;1.70;;;;;;;23.33;50.34;99756.39;1730391;81;21622;-71
2021/08/09 10:40:01;;;;;;;18.80;2.12;;;;;;;23.52;49.97;99751.86;1731456;82;21711;-72
2021/08/09 10:42:40;;;;;;;7.92;1.00;;;;;;;23.57;49.83;99758.40;1713432;81;20961;-74
2021/08/09 10:45:13;;;;;;;9.03;1.40;;;;;;;23.61;49.50;99751.78;1681035;83;21085;-73
2021/08/09 10:47:57;;;;;;;8.18;1.50;;;;;;;23.62;49.40;99757.95;1729494;82;21484;-73
2021/08/09 10:50:41;;;;;;;7.10;1.07;;;;;;;23.55;49.54;99762.21;1711155;82;21040;-73
2021/08/09 10:56:45;;;;;;;10.95;1.57;;;;;;;23.36;49.46;99761.41;1693083;82;21069;-73
2021/08/09 10:59:40;;;;;;;11.55;1.72;;;;;;;23.39;49.51;99753.11;1697546;83;21526;-74
2021/08/09 11:02:28;;;;;;;8.03;1.52;;;;;;;23.63;49.78;99746.28;1728470;81;21589;-74
2021/08/09 11:05:19;;;;;;;11.00;1.60;;;;;;;23.96;49.58;99746.53;1723568;81;21139;-72
2021/08/09 11:07:47;;;;;;;11.50;1.40;;;;;;;24.28;49.58;99736.50;1720057;81;21482;-73
2021/08/09 11:10:14;;;;;;;22.98;2.17;;;;;;;24.32;49.05;99741.37;1670131;83;21608;-73
2021/08/09 11:13:02;;;;;;;7.03;1.07;;;;;;;24.39;48.97;99744.72;1706033;82;21032;-74
2021/08/09 11:15:29;;;;;;;18.17;1.30;;;;;;;24.37;48.79;99750.70;1726975;81;21115;-73
2021/08/09 11:17:59;;;;;;;14.83;2.33;;;;;;;24.39;48.62;99748.22;1724082;81;21009;-75
2021/08/09 11:20:30;;;;;;;6.50;0.85;;;;;;;24.21;48.12;99753.66;1730038;81;21948;-74
2021/08/09 11:23:07;;;;;;;7.28;1.27;;;;;;;24.25;48.37;99763.00;1710309;82;20934;-71
2021/08/09 11:25:47;;;;;;;11.63;1.40;;;;;;;24.26;47.87;99760.69;1683186;83;21018;-71
2021/08/09 11:28:23;;;;;;;10.32;1.50;;;;;;;24.49;48.27;99758.81;1675689;81;21107;-72
2021/08/09 11:31:00;;;;;;;18.50;1.73;;;;;;;24.83;47.50;99760.58;1708175;79;21561;-72
2021/08/09 11:33:41;;;;;;;68.50;7.40;;;;;;;24.93;47.51;99754.09;1796205;78;21089;-71
2021/08/09 11:36:12;;;;;;;27.27;3.60;;;;;;;24.86;47.21;99760.25;1794286;78;21639;-72
2021/08/09 11:38:50;;;;;;;63.25;5.85;;;;;;;24.85;47.18;99766.61;1776244;78;20957;-72
2021/08/09 11:41:23;;;;;;;34.73;3.20;;;;;;;24.92;47.30;99764.93;1795212;78;20909;-72
2021/08/09 11:43:58;;;;;;;64.62;11.45;;;;;;;24.87;47.02;99768.59;1795707;78;20995;-72
2021/08/09 11:46:25;;;;;;;29.48;8.68;;;;;;;24.90;47.19;99764.25;1788788;78;21260;-72
2021/08/09 11:48:52;;;;;;;78.52;12.88;;;;;;;25.10;47.02;99768.31;1795494;78;21543;-73
2021/08/09 11:51:27;;;;;;;;;;;;;;;25.09;46.72;99770.63;1803682;78;20923;-72
2021/08/09 11:53:56;;;;;;;222.98;18.10;;;;;;;24.96;46.26;99770.30;1803174;78;20091;-71